Time;durP1;ratioP1;P1;durP2;ratioP2;P2;SDS_P1;SDS_P2;PMS_P1;PMS_P2;Temp;Humidity;BMP_temperature;BMP_pressure;BME280_temperature;BME280_humidity;BME280_pressure;Samples;Min_cycle;Max_cycle;Signal;HPM_P1;HPM_P2
2021/08/12 00:00:19;;;;;;;7.90;6.13;;;17.60;99.90;;;;;;3566557;40;20256;-76
2021/08/12 00:02:46;;;;;;;8.07;7.05;;;17.50;99.90;;;;;;3557225;40;20243;-76
2021/08/12 00:05:15;;;;;;;7.88;5.63;;;17.60;99.90;;;;;;3566519;40;20261;-77
2021/08/12 00:07:42;;;;;;;14.25;7.38;;;17.50;99.90;;;;;;3566501;40;20252;-77
2021/08/12 00:10:09;;;;;;;6.05;5.45;;;17.30;99.90;;;;;;3566366;40;20244;-76
2021/08/12 00:12:36;;;;;;;7.00;6.35;;;16.90;99.90;;;;;;3576147;40;20244;-77
2021/08/12 00:15:04;;;;;;;9.20;7.25;;;17.00;99.90;;;;;;3575827;40;20263;-77
2021/08/12 00:17:31;;;;;;;8.07;6.43;;;16.90;99.90;;;;;;3576714;40;20246;-76
2021/08/12 00:19:58;;;;;;;7.05;5.60;;;17.00;99.90;;;;;;3576157;40;20523;-76
2021/08/12 00:22:26;;;;;;;6.82;6.22;;;17.10;99.90;;;;;;3577199;40;20240;-76
2021/08/12 00:24:53;;;;;;;9.25;6.60;;;17.10;99.90;;;;;;3577609;40;20244;-76
2021/08/12 00:27:20;;;;;;;9.73;6.68;;;17.30;99.90;;;;;;3577948;40;20492;-77
2021/08/12 00:29:49;;;;;;;11.23;7.32;;;17.30;99.90;;;;;;3579026;40;20244;-76
2021/08/12 00:32:17;;;;;;;8.63;6.65;;;17.30;99.90;;;;;;3572483;40;20252;-76
2021/08/12 00:34:45;;;;;;;10.20;7.47;;;17.20;99.90;;;;;;3577098;40;20248;-77
2021/08/12 00:37:12;;;;;;;6.38;5.75;;;17.20;99.90;;;;;;3578193;40;20256;-77
2021/08/12 00:39:40;;;;;;;10.38;7.88;;;17.10;99.90;;;;;;3569729;40;20262;-77
2021/08/12 00:42:12;;;;;;;7.93;6.32;;;17.10;99.90;;;;;;3572540;40;20240;-76
2021/08/12 00:44:39;;;;;;;10.50;6.80;;;17.10;99.90;;;;;;3574589;40;20235;-76
2021/08/12 00:47:07;;;;;;;9.90;7.13;;;17.10;99.90;;;;;;3574740;40;20239;-76
2021/08/12 00:49:37;;;;;;;9.32;7.20;;;17.10;99.90;;;;;;3574693;40;20231;-75
2021/08/12 00:52:06;;;;;;;8.25;7.43;;;17.00;99.90;;;;;;3574668;40;20230;-76
2021/08/12 00:54:37;;;;;;;7.85;6.68;;;17.00;99.90;;;;;;3574469;40;20248;-76
2021/08/12 00:57:09;;;;;;;7.97;7.20;;;16.90;99.90;;;;;;3574699;40;20243;-76
2021/08/12 00:59:38;;;;;;;9.35;7.72;;;16.90;99.90;;;;;;3582989;40;20251;-76
2021/08/12 01:02:07;;;;;;;8.25;7.53;;;16.90;99.90;;;;;;3574685;40;20247;-76
2021/08/12 01:04:34;;;;;;;8.20;7.40;;;16.80;99.90;;;;;;3574520;40;20302;-76
2021/08/12 01:07:08;;;;;;;12.60;8.20;;;16.80;99.90;;;;;;3574574;40;20227;-78
2021/08/12 01:09:45;;;;;;;18.25;7.75;;;16.80;99.90;;;;;;3574582;40;20260;-76
2021/08/12 01:12:21;;;;;;;11.05;7.10;;;16.80;99.90;;;;;;3574581;40;20231;-76
2021/08/12 01:14:57;;;;;;;9.02;7.55;;;16.80;99.90;;;;;;3565909;40;20310;-77
2021/08/12 01:17:32;;;;;;;9.02;8.02;;;16.80;99.90;;;;;;3564647;40;20260;-77
2021/08/12 01:20:29;;;;;;;10.57;8.13;;;16.90;99.90;;;;;;3560462;40;20208;-76
2021/08/12 01:22:59;;;;;;;9.88;7.72;;;16.90;99.90;;;;;;3557996;40;20248;-76
2021/08/12 01:25:31;;;;;;;8.77;8.02;;;16.90;99.90;;;;;;3555841;40;20295;-77
2021/08/12 01:28:09;;;;;;;10.07;6.93;;;16.80;99.90;;;;;;3558034;40;20227;-76
2021/08/12 01:30:48;;;;;;;9.20;7.70;;;16.90;99.90;;;;;;3558456;40;20232;-76
2021/08/12 01:33:26;;;;;;;8.73;7.53;;;16.90;99.90;;;;;;3549550;40;20240;-76
2021/08/12 01:35:56;;;;;;;9.38;8.25;;;17.00;99.90;;;;;;3558286;40;20612;-77
2021/08/12 01:38:28;;;;;;;9.45;7.90;;;16.80;99.90;;;;;;3557854;40;20236;-76
2021/08/12 01:40:56;;;;;;;8.82;7.28;;;16.80;99.90;;;;;;3565659;40;20247;-76
2021/08/12 01:43:25;;;;;;;9.65;7.38;;;16.80;99.90;;;;;;3557704;40;20527;-76
2021/08/12 01:46:00;;;;;;;8.57;7.88;;;16.80;99.90;;;;;;3557763;40;20252;-76
2021/08/12 01:48:31;;;;;;;9.35;7.60;;;16.80;99.90;;;;;;3557218;40;20248;-76
2021/08/12 01:51:00;;;;;;;8.43;7.53;;;16.80;99.90;;;;;;3557909;40;20244;-76
2021/08/12 01:53:29;;;;;;;11.88;8.00;;;16.80;99.90;;;;;;3558007;40;20576;-76
2021/08/12 01:55:57;;;;;;;8.23;7.53;;;16.80;99.90;;;;;;3558181;40;20347;-76
2021/08/12 01:58:26;;;;;;;8.40;7.63;;;16.90;99.90;;;;;;3558205;40;20498;-76
2021/08/12 02:00:55;;;;;;;10.57;8.40;;;16.90;99.90;;;;;;3558417;40;20240;-76
2021/08/12 02:03:24;;;;;;;9.98;7.75;;;16.80;99.90;;;;;;3567859;40;20250;-77
2021/08/12 02:05:52;;;;;;;8.25;7.45;;;16.30;99.90;;;;;;3567120;40;20242;-76
2021/08/12 02:08:22;;;;;;;10.90;8.95;;;16.30;99.90;;;;;;3559024;40;20256;-76
2021/08/12 02:13:01;;;;;;;9.65;8.75;;;16.10;99.90;;;;;;2629167;54;20541;-75
2021/08/12 02:15:30;;;;;;;8.48;7.78;;;16.20;99.90;;;;;;2629911;31;20703;-76
2021/08/12 02:17:59;;;;;;;8.15;7.40;;;16.20;99.90;;;;;;2629448;54;20144;-75
2021/08/12 02:20:29;;;;;;;10.45;8.27;;;16.30;99.90;;;;;;2628836;54;20160;-77
2021/08/12 02:23:04;;;;;;;8.30;7.47;;;16.40;99.90;;;;;;2629756;54;20152;-75
2021/08/12 02:25:36;;;;;;;10.23;9.30;;;16.40;99.90;;;;;;2628653;46;20164;-75
2021/08/12 02:28:10;;;;;;;12.73;9.35;;;16.20;99.90;;;;;;2629407;38;20579;-76
2021/08/12 02:30:43;;;;;;;11.13;10.02;;;15.90;99.90;;;;;;2628341;47;20202;-76
2021/08/12 02:33:16;;;;;;;9.95;9.02;;;15.70;99.90;;;;;;2628056;46;20682;-76
2021/08/12 02:35:46;;;;;;;11.88;9.82;;;15.50;99.90;;;;;;2626946;54;20160;-76
2021/08/12 02:38:17;;;;;;;10.18;9.00;;;15.50;99.90;;;;;;2628515;47;20166;-76
2021/08/12 02:40:50;;;;;;;10.50;9.50;;;15.70;99.90;;;;;;2628472;46;20168;-76
2021/08/12 02:43:21;;;;;;;11.77;8.27;;;15.90;99.90;;;;;;2628466;54;20140;-76
2021/08/12 02:45:51;;;;;;;9.90;8.15;;;16.10;99.90;;;;;;2627990;54;20137;-76
2021/08/12 02:48:24;;;;;;;11.63;10.63;;;16.30;99.90;;;;;;2627945;54;20141;-76
2021/08/12 02:50:54;;;;;;;9.95;8.82;;;16.20;99.90;;;;;;2628547;46;20165;-76
2021/08/12 02:53:25;;;;;;;10.43;9.23;;;15.80;99.90;;;;;;2629236;46;20176;-75
2021/08/12 02:55:54;;;;;;;11.70;9.57;;;15.70;99.90;;;;;;2629886;38;20592;-75
2021/08/12 02:58:27;;;;;;;9.30;8.45;;;15.80;99.90;;;;;;2629337;54;20141;-75
2021/08/12 03:00:56;;;;;;;14.35;10.65;;;15.70;99.90;;;;;;2628712;46;20168;-75
2021/08/12 03:03:27;;;;;;;9.45;8.55;;;15.60;99.90;;;;;;2628801;54;20255;-75
2021/08/12 03:05:56;;;;;;;12.10;9.82;;;15.70;99.90;;;;;;2629149;54;20699;-75
2021/08/12 03:08:27;;;;;;;12.43;11.30;;;15.60;99.90;;;;;;2629051;46;20149;-75
2021/08/12 03:10:56;;;;;;;11.50;10.27;;;15.50;99.90;;;;;;2628541;38;20686;-76
2021/08/12 03:13:27;;;;;;;10.60;9.50;;;15.50;99.90;;;;;;2629063;46;20180;-77
2021/08/12 03:15:56;;;;;;;10.80;9.80;;;15.80;99.90;;;;;;2627875;54;20667;-77
2021/08/12 03:18:25;;;;;;;11.27;10.05;;;16.00;99.90;;;;;;2628646;54;20181;-76
2021/08/12 03:20:54;;;;;;;10.23;9.32;;;16.20;99.90;;;;;;2629272;47;20171;-76
2021/08/12 03:23:23;;;;;;;10.75;9.77;;;16.30;99.90;;;;;;2629305;46;20225;-77
2021/08/12 03:25:52;;;;;;;11.68;8.98;;;16.30;99.90;;;;;;2626709;47;20144;-76
2021/08/12 03:28:20;;;;;;;9.80;8.82;;;16.30;99.90;;;;;;2625116;47;20141;-76
2021/08/12 03:30:51;;;;;;;10.73;8.60;;;16.30;99.90;;;;;;2625468;47;20169;-76
2021/08/12 03:33:20;;;;;;;13.30;8.70;;;16.30;99.90;;;;;;2625637;47;21345;-76
2021/08/12 03:35:49;;;;;;;9.63;8.85;;;16.20;99.90;;;;;;2624916;54;20149;-76
2021/08/12 03:38:20;;;;;;;8.90;8.07;;;16.20;99.90;;;;;;2626309;47;20149;-77
2021/08/12 03:40:50;;;;;;;9.65;8.27;;;16.20;99.90;;;;;;2629020;47;20145;-76
2021/08/12 03:43:20;;;;;;;9.52;8.45;;;16.20;99.90;;;;;;2627394;54;20149;-76
2021/08/12 03:45:50;;;;;;;10.68;8.80;;;16.10;99.90;;;;;;2625104;54;20146;-77
2021/08/12 03:48:19;;;;;;;9.45;8.65;;;16.10;99.90;;;;;;2625599;39;20641;-77
2021/08/12 03:50:48;;;;;;;9.77;8.82;;;16.20;99.90;;;;;;2625114;54;20138;-76
2021/08/12 03:53:18;;;;;;;9.52;8.73;;;16.10;99.90;;;;;;2626493;54;20169;-77
2021/08/12 03:55:47;;;;;;;9.65;8.75;;;16.10;99.90;;;;;;2628208;47;20145;-77
2021/08/12 03:58:15;;;;;;;9.80;9.00;;;16.10;99.90;;;;;;2629479;54;20149;-76
2021/08/12 04:00:45;;;;;;;10.05;9.05;;;16.10;99.90;;;;;;2625139;54;20447;-77
2021/08/12 04:03:15;;;;;;;8.65;7.93;;;16.00;99.90;;;;;;2629818;54;20153;-78
2021/08/12 04:05:44;;;;;;;9.48;8.68;;;16.00;99.90;;;;;;2636684;39;20675;-78
2021/08/12 04:08:13;;;;;;;9.52;8.65;;;16.00;99.90;;;;;;2630540;47;20232;-77
2021/08/12 04:10:42;;;;;;;9.85;8.95;;;16.00;99.90;;;;;;2630288;54;20149;-77
2021/08/12 04:13:11;;;;;;;10.27;9.38;;;16.00;99.90;;;;;;2629960;54;20126;-77
2021/08/12 04:15:40;;;;;;;10.98;9.80;;;15.90;99.90;;;;;;2629925;47;20163;-78
2021/08/12 04:18:09;;;;;;;8.40;7.68;;;16.00;99.90;;;;;;2630273;54;20157;-77
2021/08/12 04:20:39;;;;;;;13.77;10.05;;;16.00;99.90;;;;;;2630060;47;20165;-77
2021/08/12 04:23:08;;;;;;;9.13;8.32;;;16.00;99.90;;;;;;2630080;54;20180;-77
2021/08/12 04:25:37;;;;;;;10.52;9.43;;;16.10;99.90;;;;;;2630524;54;20205;-77
2021/08/12 04:28:07;;;;;;;10.15;9.27;;;16.20;99.90;;;;;;2632183;39;20566;-77
2021/08/12 04:30:36;;;;;;;9.52;8.63;;;16.40;99.90;;;;;;2630033;54;20149;-77
2021/08/12 04:33:06;;;;;;;11.65;9.88;;;16.30;99.90;;;;;;2629982;47;20187;-77
2021/08/12 04:35:35;;;;;;;10.77;9.68;;;16.30;99.90;;;;;;2629481;47;20142;-77
2021/08/12 04:38:05;;;;;;;12.40;9.55;;;16.40;99.90;;;;;;2629953;47;20154;-77
2021/08/12 04:40:34;;;;;;;9.80;8.88;;;16.30;99.90;;;;;;2629960;47;20160;-77
2021/08/12 04:43:03;;;;;;;10.27;9.40;;;16.30;99.90;;;;;;2633362;39;20721;-77
2021/08/12 04:45:32;;;;;;;10.82;9.73;;;16.40;99.90;;;;;;2638056;39;20656;-77
2021/08/12 04:48:02;;;;;;;12.18;9.55;;;16.30;99.90;;;;;;2630518;47;20683;-77
2021/08/12 04:50:37;;;;;;;11.38;10.25;;;16.30;99.90;;;;;;2630154;47;20193;-78
2021/08/12 04:53:08;;;;;;;10.05;9.05;;;16.30;99.90;;;;;;2629688;54;20145;-77
2021/08/12 04:55:37;;;;;;;14.43;9.82;;;16.30;99.90;;;;;;2629663;54;20159;-77
2021/08/12 04:58:07;;;;;;;9.38;8.40;;;16.40;99.90;;;;;;2629879;54;20157;-77
2021/08/12 05:00:37;;;;;;;16.85;13.07;;;16.30;99.90;;;;;;2629995;54;20132;-75
2021/08/12 05:03:06;;;;;;;11.05;9.40;;;16.20;99.90;;;;;;2629973;54;20152;-76
2021/08/12 05:05:36;;;;;;;10.52;9.57;;;16.30;99.90;;;;;;2629977;47;20164;-75
2021/08/12 05:08:06;;;;;;;11.15;9.98;;;16.30;99.90;;;;;;2629768;54;20145;-75
2021/08/12 05:10:36;;;;;;;11.15;10.18;;;16.30;99.90;;;;;;2630085;54;20172;-76
2021/08/12 05:13:05;;;;;;;11.15;9.85;;;16.40;99.90;;;;;;2629800;47;20145;-77
2021/08/12 05:15:35;;;;;;;10.05;9.05;;;16.30;99.90;;;;;;2628403;47;20190;-76
2021/08/12 05:18:05;;;;;;;9.85;8.88;;;16.40;99.90;;;;;;2635651;39;20604;-76
2021/08/12 05:20:34;;;;;;;12.77;9.88;;;16.60;99.90;;;;;;2630428;47;20153;-76
2021/08/12 05:23:04;;;;;;;10.35;9.18;;;16.70;99.90;;;;;;2630304;54;20145;-76
2021/08/12 05:25:32;;;;;;;10.00;8.88;;;16.70;99.90;;;;;;2630467;47;20152;-77
2021/08/12 05:28:03;;;;;;;9.65;8.75;;;16.60;99.90;;;;;;2630176;47;20145;-76
2021/08/12 05:30:32;;;;;;;9.05;8.25;;;16.60;99.90;;;;;;2629131;46;20667;-76
2021/08/12 05:33:02;;;;;;;11.27;10.15;;;16.50;99.90;;;;;;2630071;54;20142;-76
2021/08/12 05:35:31;;;;;;;14.82;13.30;;;16.50;99.90;;;;;;2629414;47;20774;-77
2021/08/12 05:38:00;;;;;;;11.52;10.10;;;16.50;99.90;;;;;;2629700;47;20136;-77
2021/08/12 05:40:30;;;;;;;11.38;10.07;;;16.50;99.90;;;;;;2630028;47;20152;-76
2021/08/12 05:43:00;;;;;;;10.13;9.23;;;16.70;99.90;;;;;;2629585;54;20150;-76
2021/08/12 05:45:30;;;;;;;12.48;9.75;;;16.90;99.90;;;;;;2629508;54;20145;-76
2021/08/12 05:48:00;;;;;;;10.43;9.30;;;17.00;99.90;;;;;;2630076;47;20137;-77
2021/08/12 05:50:29;;;;;;;10.00;9.10;;;17.00;99.90;;;;;;2629855;47;20146;-77
2021/08/12 05:52:57;;;;;;;9.60;8.75;;;17.20;99.90;;;;;;2629731;47;20125;-76
2021/08/12 05:55:26;;;;;;;9.35;8.35;;;17.40;99.90;;;;;;2630038;47;20152;-77
2021/08/12 05:57:55;;;;;;;10.85;9.82;;;17.50;99.90;;;;;;2630548;47;20156;-76
2021/08/12 06:00:24;;;;;;;12.30;11.15;;;17.50;99.90;;;;;;2630554;54;20134;-77
2021/08/12 06:02:57;;;;;;;10.25;9.25;;;17.50;99.90;;;;;;2630726;47;20143;-78
2021/08/12 06:05:35;;;;;;;11.82;10.63;;;17.60;99.90;;;;;;2630623;47;20172;-76
2021/08/12 06:08:06;;;;;;;15.40;10.27;;;17.60;99.90;;;;;;2630734;47;20156;-76
2021/08/12 06:10:37;;;;;;;8.63;7.72;;;17.70;99.90;;;;;;2630458;54;20129;-77
2021/08/12 06:13:06;;;;;;;13.38;10.30;;;17.80;99.90;;;;;;2630568;47;20180;-77
2021/08/12 06:15:38;;;;;;;10.48;9.40;;;17.90;99.90;;;;;;2630597;47;20153;-77
2021/08/12 06:18:13;;;;;;;8.40;7.70;;;18.10;99.90;;;;;;2630706;47;20149;-77
2021/08/12 06:20:44;;;;;;;9.88;9.05;;;18.10;99.90;;;;;;2630572;47;20145;-77
2021/08/12 06:23:14;;;;;;;9.05;7.72;;;18.00;99.90;;;;;;2630596;54;20153;-76
2021/08/12 06:25:43;;;;;;;8.88;7.97;;;18.10;99.90;;;;;;2630392;47;20153;-77
2021/08/12 06:28:14;;;;;;;9.20;8.40;;;18.00;99.90;;;;;;2630569;47;20149;-76
2021/08/12 06:30:43;;;;;;;12.32;9.13;;;17.90;99.90;;;;;;2630500;54;20157;-77
2021/08/12 06:33:15;;;;;;;8.88;7.97;;;17.80;99.90;;;;;;2630513;47;20153;-77
2021/08/12 06:35:45;;;;;;;12.73;11.43;;;18.10;99.90;;;;;;2630305;47;20157;-78
2021/08/12 06:38:14;;;;;;;9.07;8.25;;;18.30;99.90;;;;;;2630554;47;20137;-76
2021/08/12 06:40:44;;;;;;;9.75;8.82;;;18.30;99.90;;;;;;2630495;47;20126;-76
2021/08/12 06:43:13;;;;;;;10.05;8.35;;;18.50;99.90;;;;;;2630626;47;20158;-77
2021/08/12 06:45:56;;;;;;;8.57;7.03;;;18.80;99.90;;;;;;2630370;47;20935;-77
2021/08/12 06:48:27;;;;;;;8.25;7.55;;;18.90;99.90;;;;;;2630584;47;20715;-77
2021/08/12 06:50:57;;;;;;;8.75;6.85;;;19.10;99.90;;;;;;2630771;47;20210;-77
2021/08/12 06:53:26;;;;;;;6.90;6.30;;;19.20;99.90;;;;;;2630353;47;20768;-77
2021/08/12 06:55:55;;;;;;;9.73;7.70;;;19.50;99.90;;;;;;2630290;47;20157;-78
2021/08/12 06:58:24;;;;;;;8.18;6.78;;;19.80;99.90;;;;;;2630778;47;20126;-78
2021/08/12 07:00:53;;;;;;;9.00;7.15;;;19.60;99.90;;;;;;2631029;54;20149;-77
2021/08/12 07:03:23;;;;;;;8.52;7.72;;;19.80;99.90;;;;;;2630771;54;20180;-78
2021/08/12 07:05:53;;;;;;;8.35;6.90;;;19.90;99.90;;;;;;2629639;46;20160;-77
2021/08/12 07:08:23;;;;;;;7.15;6.45;;;20.20;99.90;;;;;;2631178;54;20824;-77
2021/08/12 07:10:53;;;;;;;12.55;8.95;;;20.30;99.90;;;;;;2630932;47;20154;-76
2021/08/12 07:13:22;;;;;;;9.55;7.53;;;20.50;99.90;;;;;;2631142;54;20244;-77
2021/08/12 07:15:51;;;;;;;7.38;6.68;;;20.50;99.90;;;;;;2635742;39;20737;-77
2021/08/12 07:18:19;;;;;;;7.80;7.00;;;20.40;99.90;;;;;;2631174;54;20168;-77
2021/08/12 07:20:50;;;;;;;6.93;6.32;;;20.60;99.90;;;;;;2631265;47;20157;-77
2021/08/12 07:23:20;;;;;;;7.45;6.85;;;20.80;99.90;;;;;;2630834;47;20157;-77
2021/08/12 07:25:49;;;;;;;6.95;6.35;;;20.80;99.90;;;;;;2631026;47;20129;-76
2021/08/12 07:28:20;;;;;;;7.20;6.47;;;20.80;99.90;;;;;;2631196;47;20133;-78
2021/08/12 07:30:49;;;;;;;7.50;6.80;;;21.00;99.90;;;;;;2631240;54;20180;-78
2021/08/12 07:33:18;;;;;;;10.27;7.47;;;21.10;99.90;;;;;;2631120;47;20130;-79
2021/08/12 07:35:47;;;;;;;9.13;6.82;;;21.30;99.90;;;;;;2630745;54;20157;-77
2021/08/12 07:38:16;;;;;;;9.20;7.15;;;21.40;99.90;;;;;;2630920;54;20142;-76
2021/08/12 07:40:46;;;;;;;6.50;5.90;;;21.60;99.90;;;;;;2630771;54;20928;-77
2021/08/12 07:43:15;;;;;;;6.57;6.07;;;21.60;99.90;;;;;;2630922;47;20137;-77
2021/08/12 07:45:44;;;;;;;6.53;5.93;;;21.80;99.90;;;;;;2630945;47;20149;-76
2021/08/12 07:48:14;;;;;;;8.13;5.65;;;21.80;99.90;;;;;;2630959;54;20181;-77
2021/08/12 07:50:43;;;;;;;6.18;5.45;;;22.00;99.90;;;;;;2631351;47;20222;-78
2021/08/12 07:53:12;;;;;;;6.03;5.20;;;21.90;99.90;;;;;;2631260;47;20181;-77
2021/08/12 07:55:41;;;;;;;7.63;5.63;;;22.00;99.90;;;;;;2630735;47;20154;-76
2021/08/12 07:58:11;;;;;;;6.35;5.75;;;22.10;99.90;;;;;;2631119;54;20140;-77
2021/08/12 08:00:40;;;;;;;5.75;5.25;;;22.30;99.90;;;;;;2631141;47;20719;-77
2021/08/12 08:03:18;;;;;;;8.07;5.50;;;22.60;99.90;;;;;;2630976;47;20152;-77
2021/08/12 08:05:47;;;;;;;5.60;5.10;;;22.60;99.90;;;;;;2633174;31;20797;-78
2021/08/12 08:08:15;;;;;;;7.47;5.88;;;22.90;99.90;;;;;;2631077;47;20212;-77
2021/08/12 08:10:51;;;;;;;6.95;5.00;;;23.00;99.90;;;;;;2603230;39;22181;31
2021/08/12 08:18:29;;;;;;;6.57;5.15;;;22.90;99.90;;;;;;2623185;47;20212;-77
2021/08/12 08:21:02;;;;;;;5.22;4.78;;;22.90;99.90;;;;;;2631218;54;20149;-77
2021/08/12 08:23:30;;;;;;;6.18;5.00;;;23.00;99.90;;;;;;2630620;47;20181;-78
2021/08/12 08:26:15;;;;;;;5.20;4.65;;;23.20;99.90;;;;;;2630802;54;20150;-78
2021/08/12 08:28:49;;;;;;;5.82;4.63;;;23.40;99.90;;;;;;2633255;39;20759;-78
2021/08/12 08:34:32;;;;;;;5.30;4.72;;;23.60;99.90;;;;;;2630579;54;20216;-78
2021/08/12 08:40:14;;;;;;;6.28;3.97;;;23.70;99.90;;;;;;2630917;54;20133;-78
2021/08/12 08:42:46;;;;;;;3.90;3.60;;;24.10;99.90;;;;;;2630794;54;20177;-78
2021/08/12 08:45:17;;;;;;;4.80;4.40;;;24.00;99.90;;;;;;2630767;47;20161;-78
2021/08/12 08:47:48;;;;;;;5.30;4.82;;;24.00;99.90;;;;;;2638407;39;20780;-77
2021/08/12 08:50:31;;;;;;;5.10;4.45;;;24.00;99.90;;;;;;2630959;54;20153;-78
2021/08/12 08:53:01;;;;;;;5.97;5.05;;;24.40;99.90;;;;;;2630801;54;20149;-79
2021/08/12 08:55:31;;;;;;;5.35;4.30;;;24.60;99.90;;;;;;2630214;46;20161;-77
2021/08/12 08:58:01;;;;;;;7.57;3.63;;;24.70;99.90;;;;;;2630818;47;20134;-78
2021/08/12 09:00:31;;;;;;;5.00;4.55;;;24.70;99.90;;;;;;2630666;46;20453;-77
2021/08/12 09:03:09;;;;;;;4.30;3.90;;;24.80;99.90;;;;;;2630912;47;20156;-78
2021/08/12 09:05:39;;;;;;;4.88;3.65;;;24.80;99.90;;;;;;2630654;54;20134;-79
2021/08/12 09:08:10;;;;;;;5.93;4.15;;;24.60;99.90;;;;;;2630736;54;20173;-82
2021/08/12 09:13:36;;;;;;;5.07;4.57;;;24.60;99.90;;;;;;2630545;54;20177;-77
2021/08/12 09:16:07;;;;;;;4.97;4.53;;;24.60;99.90;;;;;;2630714;47;20158;-77
2021/08/12 09:18:39;;;;;;;6.85;4.45;;;24.60;99.90;;;;;;2630958;54;20156;-77
2021/08/12 09:21:36;;;;;;;4.60;4.20;;;24.50;99.90;;;;;;2630556;54;20137;-80
2021/08/12 09:24:07;;;;;;;5.22;4.72;;;24.90;99.90;;;;;;2630799;54;20236;-79
2021/08/12 09:26:46;;;;;;;4.80;4.40;;;24.90;99.90;;;;;;2630748;47;20160;-78
2021/08/12 09:29:29;;;;;;;6.35;5.10;;;24.80;99.90;;;;;;2631022;54;20133;-79
2021/08/12 09:32:00;;;;;;;5.50;5.00;;;25.10;99.90;;;;;;2630790;54;20129;-81
2021/08/12 09:34:43;;;;;;;7.32;3.83;;;25.30;99.90;;;;;;2630748;46;20161;-78
2021/08/12 09:37:14;;;;;;;5.00;4.50;;;25.30;99.90;;;;;;2631000;54;20163;-78
2021/08/12 09:39:46;;;;;;;7.13;4.78;;;25.30;99.90;;;;;;2630905;46;20125;-78
2021/08/12 09:42:16;;;;;;;5.13;4.63;;;25.30;99.90;;;;;;2630998;47;20130;-79
2021/08/12 09:44:50;;;;;;;5.15;4.38;;;25.70;99.90;;;;;;2634047;39;20887;-79
2021/08/12 09:47:29;;;;;;;5.97;5.10;;;25.80;99.90;;;;;;2630845;47;20163;-78
2021/08/12 09:49:59;;;;;;;5.10;4.60;;;26.00;99.90;;;;;;2630831;47;20212;-78
2021/08/12 09:52:33;;;;;;;6.45;4.20;;;26.20;99.90;;;;;;2642526;31;20863;-78
2021/08/12 09:55:10;;;;;;;4.13;3.80;;;26.10;99.90;;;;;;2630594;47;20244;-79
2021/08/12 09:57:44;;;;;;;6.65;4.68;;;26.20;99.90;;;;;;2630677;47;20156;-78
2021/08/12 10:00:17;;;;;;;6.20;4.38;;;26.40;99.90;;;;;;2630658;39;20696;-79
2021/08/12 10:02:46;;;;;;;4.97;4.57;;;26.30;99.90;;;;;;2630218;47;20174;-78
2021/08/12 10:05:15;;;;;;;6.22;4.45;;;26.10;99.90;;;;;;2630284;54;20188;-79
2021/08/12 10:07:48;;;;;;;6.15;4.50;;;26.00;99.90;;;;;;2630376;47;20137;-77
2021/08/12 10:10:19;;;;;;;5.15;4.65;;;26.20;99.90;;;;;;2630681;54;20137;-78
2021/08/12 10:12:51;;;;;;;4.50;4.10;;;26.30;99.90;;;;;;2630749;47;20193;-77
2021/08/12 10:15:23;;;;;;;6.75;4.78;;;26.50;99.90;;;;;;2630352;54;20169;-78
2021/08/12 10:17:52;;;;;;;4.70;4.30;;;26.90;99.90;;;;;;2630528;54;20153;-78
2021/08/12 10:20:23;;;;;;;5.68;4.47;;;26.90;99.90;;;;;;2630591;47;20121;-78
2021/08/12 10:22:55;;;;;;;4.20;3.78;;;27.10;99.90;;;;;;2630632;47;20153;-77
2021/08/12 10:25:25;;;;;;;5.28;4.80;;;27.20;99.90;;;;;;2630838;39;20875;-79
2021/08/12 10:27:56;;;;;;;4.90;4.40;;;26.90;99.90;;;;;;2630816;54;20130;-78
2021/08/12 10:30:26;;;;;;;4.65;4.25;;;27.10;99.90;;;;;;2629911;47;20157;-77
2021/08/12 10:32:58;;;;;;;4.97;4.05;;;27.50;99.90;;;;;;2637658;39;20991;-78
2021/08/12 10:35:28;;;;;;;4.90;4.13;;;27.70;99.90;;;;;;2631087;47;20153;-78
2021/08/12 10:38:01;;;;;;;4.85;3.90;;;27.70;99.90;;;;;;2632263;39;20842;-79
2021/08/12 10:40:32;;;;;;;4.82;4.28;;;27.90;99.90;;;;;;2630626;47;20164;-78
2021/08/12 10:43:02;;;;;;;4.20;3.63;;;28.10;99.90;;;;;;2631127;54;20141;-77
2021/08/12 10:45:38;;;;;;;4.38;3.97;;;28.00;99.90;;;;;;2631240;54;20153;-79
2021/08/12 10:48:35;;;;;;;3.75;3.38;;;27.90;99.90;;;;;;2631082;54;20153;-79
2021/08/12 10:51:44;;;;;;;;;;;;;;;;;;;;;
2021/08/12 10:54:46;;;;;;;4.75;4.35;;;28.40;99.90;;;;;;2631055;46;20177;-79
2021/08/12 10:57:26;;;;;;;4.28;3.88;;;28.40;99.90;;;;;;2631383;54;20142;-79
2021/08/12 10:59:57;;;;;;;6.78;4.35;;;28.60;99.90;;;;;;2630548;54;20197;-78
2021/08/12 11:02:45;;;;;;;4.53;4.13;;;28.60;99.90;;;;;;2630681;47;20201;-79
2021/08/12 11:05:17;;;;;;;4.88;4.25;;;28.70;99.90;;;;;;2630748;54;20213;-78
2021/08/12 11:07:55;;;;;;;5.82;3.55;;;28.70;99.90;;;;;;2631199;54;20140;-78
2021/08/12 11:11:04;;;;;;;7.25;5.13;;;28.50;99.90;;;;;;2631434;47;20121;-79
2021/08/12 11:13:45;;;;;;;4.25;3.95;;;27.90;99.90;;;;;;2631315;47;20162;-79
2021/08/12 11:16:14;;;;;;;6.15;4.40;;;27.60;99.90;;;;;;2636222;39;20781;-78
2021/08/12 11:19:08;;;;;;;4.43;4.03;;;27.20;99.90;;;;;;2631237;54;20176;-80
2021/08/12 11:22:52;;;;;;;6.78;4.45;;;27.20;99.90;;;;;;2630634;47;20156;-79
2021/08/12 11:41:45;;;;;;;4.72;4.25;;;27.60;99.90;;;;;;2630549;46;20153;-79
2021/08/12 11:45:26;;;;;;;5.15;4.03;;;27.60;99.90;;;;;;2630599;47;20213;-79
2021/08/12 11:48:31;;;;;;;6.35;4.20;;;28.10;99.90;;;;;;2631266;54;20149;-79
2021/08/12 11:51:05;;;;;;;6.03;3.60;;;28.20;99.90;;;;;;2631293;54;20133;-79
2021/08/12 11:53:46;;;;;;;3.90;3.40;;;28.50;99.90;;;;;;2624439;54;20213;-76
2021/08/12 12:00:25;;;;;;;;;;;;;;;;;;;;;
2021/08/12 12:04:40;;;;;;;6.35;3.17;;;28.90;99.90;;;;;;2630797;47;20169;-81
2021/08/12 12:07:46;;;;;;;2.95;2.75;;;28.80;99.90;;;;;;2631012;54;20149;-80
2021/08/12 12:10:25;;;;;;;6.35;3.75;;;28.90;99.90;;;;;;2629591;54;20232;-81
2021/08/12 12:12:54;;;;;;;3.28;2.95;;;28.50;99.90;;;;;;2631172;46;20141;-80
2021/08/12 12:15:33;;;;;;;4.32;3.45;;;28.30;99.90;;;;;;2630883;47;20157;-80
2021/08/12 12:18:02;;;;;;;3.67;3.33;;;28.60;99.90;;;;;;2631387;47;20152;-80
2021/08/12 12:20:35;;;;;;;3.50;3.13;;;28.90;99.90;;;;;;2630741;54;20193;-82
2021/08/12 12:23:07;;;;;;;3.60;3.30;;;29.10;99.90;;;;;;2631109;54;20142;-80
2021/08/12 12:25:38;;;;;;;4.15;3.38;;;29.30;99.90;;;;;;2630886;54;20140;-82
2021/08/12 12:28:08;;;;;;;4.03;3.60;;;29.70;99.90;;;;;;2628916;54;20201;-81
2021/08/12 12:30:41;;;;;;;3.63;3.28;;;29.60;99.90;;;;;;2629547;47;20224;-81
2021/08/12 12:33:13;;;;;;;4.05;3.45;;;29.40;99.90;;;;;;2628300;54;20219;-81
2021/08/12 12:35:43;;;;;;;3.40;3.10;;;29.70;99.90;;;;;;2630963;54;20145;-80
2021/08/12 12:38:18;;;;;;;3.90;3.58;;;29.90;99.90;;;;;;2630319;47;20220;-80
2021/08/12 12:40:48;;;;;;;3.70;3.22;;;30.00;99.90;;;;;;2631295;54;20172;-80
2021/08/12 12:43:17;;;;;;;3.78;3.28;;;30.00;99.90;;;;;;2630806;47;20173;-80
2021/08/12 12:45:48;;;;;;;4.80;3.80;;;30.00;99.90;;;;;;2627814;54;20208;-82
2021/08/12 12:48:17;;;;;;;3.58;3.28;;;30.00;99.90;;;;;;2628878;47;20208;-83
2021/08/12 12:50:49;;;;;;;3.70;3.40;;;29.40;99.90;;;;;;2631134;47;20175;-81
2021/08/12 12:53:31;;;;;;;5.32;4.07;;;29.90;99.90;;;;;;2631374;47;20156;-81
2021/08/12 12:56:01;;;;;;;3.45;3.05;;;29.70;99.90;;;;;;2630699;47;20141;-80
2021/08/12 12:58:37;;;;;;;4.18;3.45;;;29.50;99.90;;;;;;2630986;47;20142;-78
2021/08/12 13:01:19;;;;;;;6.50;3.70;;;29.90;99.90;;;;;;2620168;54;20988;31
2021/08/12 13:06:51;;;;;;;7.80;7.00;;;29.60;99.90;;;;;;2625966;39;21179;31
2021/08/12 13:09:36;;;;;;;4.22;3.88;;;29.80;99.90;;;;;;2630531;39;21152;31
2021/08/12 13:14:44;;;;;;;4.10;3.45;;;29.80;99.90;;;;;;2623877;54;20200;-83
2021/08/12 13:17:32;;;;;;;3.92;3.55;;;29.60;99.90;;;;;;2627739;54;20243;-82
2021/08/12 13:20:11;;;;;;;3.85;3.53;;;29.40;99.90;;;;;;2631393;47;20140;-83
2021/08/12 13:25:24;;;;;;;4.38;3.88;;;29.70;99.90;;;;;;2649873;39;21188;31
2021/08/12 13:30:44;;;;;;;3.22;2.92;;;29.90;99.90;;;;;;2623981;54;20204;-82
2021/08/12 13:35:40;;;;;;;4.93;3.50;;;29.60;99.90;;;;;;2630599;54;20210;-83
2021/08/12 13:44:01;;;;;;;4.22;2.85;;;30.40;99.90;;;;;;2626252;54;20207;-83
2021/08/12 13:46:34;;;;;;;4.68;3.17;;;30.30;99.90;;;;;;2631195;47;20177;-82
2021/08/12 13:49:04;;;;;;;3.55;3.13;;;30.20;99.90;;;;;;2631234;54;20136;-81
2021/08/12 13:51:33;;;;;;;3.20;2.90;;;30.30;99.90;;;;;;2637822;39;20821;-81
2021/08/12 13:54:02;;;;;;;3.88;3.45;;;29.90;99.90;;;;;;2631091;54;20130;-83
2021/08/12 13:59:27;;;;;;;3.22;2.85;;;29.20;99.90;;;;;;2631149;54;20134;-81
2021/08/12 14:01:58;;;;;;;5.55;3.55;;;29.30;99.90;;;;;;2630912;47;20173;-81
2021/08/12 14:04:27;;;;;;;4.85;3.72;;;29.20;99.90;;;;;;2631129;47;20144;-81
2021/08/12 14:06:56;;;;;;;3.17;2.97;;;29.20;99.90;;;;;;2630985;47;20150;-82
2021/08/12 14:09:25;;;;;;;4.07;3.20;;;29.50;99.90;;;;;;2630554;46;20161;-80
2021/08/12 14:11:55;;;;;;;4.05;3.03;;;29.50;99.90;;;;;;2630437;54;20164;-82